sensor_id;sensor_type;location;lat;lon;timestamp;P1;durP1;ratioP1;P2;durP2;ratioP2
27013;SDS011;14556;52.222;4.510;2023-04-24T00:01:37;0.40;;;0.40;;
27013;SDS011;14556;52.222;4.510;2023-04-24T00:04:05;1.23;;;0.40;;
27013;SDS011;14556;52.222;4.510;2023-04-24T00:06:33;0.60;;;0.60;;
27013;SDS011;14556;52.222;4.510;2023-04-24T00:09:00;0.50;;;0.30;;
27013;SDS011;14556;52.222;4.510;2023-04-24T00:11:26;1.10;;;0.33;;
27013;SDS011;14556;52.222;4.510;2023-04-24T00:13:53;1.47;;;0.30;;
27013;SDS011;14556;52.222;4.510;2023-04-24T00:16:19;0.93;;;0.30;;
27013;SDS011;14556;52.222;4.510;2023-04-24T00:18:46;1.97;;;0.43;;
27013;SDS011;14556;52.222;4.510;2023-04-24T00:21:14;0.73;;;0.40;;
27013;SDS011;14556;52.222;4.510;2023-04-24T00:23:42;0.90;;;0.43;;
27013;SDS011;14556;52.222;4.510;2023-04-24T00:26:08;0.53;;;0.40;;
27013;SDS011;14556;52.222;4.510;2023-04-24T00:28:35;2.00;;;0.60;;
27013;SDS011;14556;52.222;4.510;2023-04-24T00:31:01;1.57;;;0.60;;
27013;SDS011;14556;52.222;4.510;2023-04-24T00:33:27;0.53;;;0.50;;
27013;SDS011;14556;52.222;4.510;2023-04-24T00:35:54;0.50;;;0.30;;
27013;SDS011;14556;52.222;4.510;2023-04-24T00:38:20;1.50;;;0.43;;
27013;SDS011;14556;52.222;4.510;2023-04-24T00:40:48;0.83;;;0.40;;
27013;SDS011;14556;52.222;4.510;2023-04-24T00:43:16;2.10;;;0.50;;
27013;SDS011;14556;52.222;4.510;2023-04-24T00:45:42;0.77;;;0.67;;
27013;SDS011;14556;52.222;4.510;2023-04-24T00:48:09;2.10;;;0.37;;
27013;SDS011;14556;52.222;4.510;2023-04-24T00:50:36;0.87;;;0.40;;
27013;SDS011;14556;52.222;4.510;2023-04-24T00:53:02;2.30;;;0.90;;
27013;SDS011;14556;52.222;4.510;2023-04-24T00:55:29;2.73;;;0.40;;
27013;SDS011;14556;52.222;4.510;2023-04-24T00:57:56;2.50;;;0.60;;
27013;SDS011;14556;52.222;4.510;2023-04-24T01:00:22;1.23;;;0.70;;
27013;SDS011;14556;52.222;4.510;2023-04-24T01:02:49;0.77;;;0.40;;
27013;SDS011;14556;52.222;4.510;2023-04-24T01:05:16;0.30;;;0.30;;
27013;SDS011;14556;52.222;4.510;2023-04-24T01:07:44;0.60;;;0.60;;
27013;SDS011;14556;52.222;4.510;2023-04-24T01:10:11;3.57;;;1.30;;
27013;SDS011;14556;52.222;4.510;2023-04-24T01:12:38;0.90;;;0.53;;
27013;SDS011;14556;52.222;4.510;2023-04-24T01:15:05;1.30;;;0.60;;
27013;SDS011;14556;52.222;4.510;2023-04-24T01:17:32;1.57;;;0.57;;
27013;SDS011;14556;52.222;4.510;2023-04-24T01:19:59;3.30;;;1.27;;
27013;SDS011;14556;52.222;4.510;2023-04-24T01:22:26;2.33;;;1.00;;
27013;SDS011;14556;52.222;4.510;2023-04-24T01:24:53;0.60;;;0.60;;
27013;SDS011;14556;52.222;4.510;2023-04-24T01:27:19;2.03;;;0.90;;
27013;SDS011;14556;52.222;4.510;2023-04-24T01:29:46;2.20;;;0.50;;
27013;SDS011;14556;52.222;4.510;2023-04-24T01:32:15;0.90;;;0.50;;
27013;SDS011;14556;52.222;4.510;2023-04-24T01:34:41;2.27;;;0.90;;
27013;SDS011;14556;52.222;4.510;2023-04-24T01:37:08;0.67;;;0.67;;
27013;SDS011;14556;52.222;4.510;2023-04-24T01:39:35;1.10;;;0.50;;
27013;SDS011;14556;52.222;4.510;2023-04-24T01:42:02;1.50;;;0.50;;
27013;SDS011;14556;52.222;4.510;2023-04-24T01:44:28;0.57;;;0.40;;
27013;SDS011;14556;52.222;4.510;2023-04-24T01:46:55;2.50;;;0.77;;
27013;SDS011;14556;52.222;4.510;2023-04-24T01:49:22;1.03;;;0.40;;
27013;SDS011;14556;52.222;4.510;2023-04-24T01:51:48;1.77;;;0.83;;
27013;SDS011;14556;52.222;4.510;2023-04-24T01:54:14;1.87;;;0.90;;
27013;SDS011;14556;52.222;4.510;2023-04-24T01:56:41;0.87;;;0.63;;
27013;SDS011;14556;52.222;4.510;2023-04-24T01:59:11;2.03;;;0.67;;
27013;SDS011;14556;52.222;4.510;2023-04-24T02:01:38;2.20;;;0.50;;
27013;SDS011;14556;52.222;4.510;2023-04-24T02:04:05;2.00;;;0.60;;
27013;SDS011;14556;52.222;4.510;2023-04-24T02:06:32;0.83;;;0.57;;
27013;SDS011;14556;52.222;4.510;2023-04-24T02:08:58;0.40;;;0.40;;
27013;SDS011;14556;52.222;4.510;2023-04-24T02:11:25;0.33;;;0.30;;
27013;SDS011;14556;52.222;4.510;2023-04-24T02:13:52;1.20;;;0.60;;
27013;SDS011;14556;52.222;4.510;2023-04-24T02:16:18;0.70;;;0.63;;
27013;SDS011;14556;52.222;4.510;2023-04-24T02:18:44;1.10;;;0.70;;
27013;SDS011;14556;52.222;4.510;2023-04-24T02:21:11;1.73;;;0.63;;
27013;SDS011;14556;52.222;4.510;2023-04-24T02:23:37;0.50;;;0.50;;
27013;SDS011;14556;52.222;4.510;2023-04-24T02:26:04;0.90;;;0.60;;
27013;SDS011;14556;52.222;4.510;2023-04-24T02:28:30;0.47;;;0.47;;
27013;SDS011;14556;52.222;4.510;2023-04-24T02:30:56;0.93;;;0.50;;
27013;SDS011;14556;52.222;4.510;2023-04-24T02:33:23;1.27;;;0.80;;
27013;SDS011;14556;52.222;4.510;2023-04-24T02:35:49;3.37;;;0.60;;
27013;SDS011;14556;52.222;4.510;2023-04-24T02:38:15;1.27;;;0.77;;
27013;SDS011;14556;52.222;4.510;2023-04-24T02:40:42;0.67;;;0.40;;
27013;SDS011;14556;52.222;4.510;2023-04-24T02:43:08;0.50;;;0.50;;
27013;SDS011;14556;52.222;4.510;2023-04-24T02:45:35;1.27;;;0.30;;
27013;SDS011;14556;52.222;4.510;2023-04-24T02:48:01;0.60;;;0.60;;
27013;SDS011;14556;52.222;4.510;2023-04-24T02:50:28;0.30;;;0.30;;
27013;SDS011;14556;52.222;4.510;2023-04-24T02:52:54;0.40;;;0.40;;
27013;SDS011;14556;52.222;4.510;2023-04-24T02:55:21;0.50;;;0.37;;
27013;SDS011;14556;52.222;4.510;2023-04-24T02:57:47;1.13;;;0.27;;
27013;SDS011;14556;52.222;4.510;2023-04-24T03:00:14;0.60;;;0.57;;
27013;SDS011;14556;52.222;4.510;2023-04-24T03:02:40;0.70;;;0.50;;
27013;SDS011;14556;52.222;4.510;2023-04-24T03:05:07;2.37;;;0.50;;
27013;SDS011;14556;52.222;4.510;2023-04-24T03:07:33;0.60;;;0.50;;
27013;SDS011;14556;52.222;4.510;2023-04-24T03:10:00;0.50;;;0.40;;
27013;SDS011;14556;52.222;4.510;2023-04-24T03:12:26;0.33;;;0.33;;
27013;SDS011;14556;52.222;4.510;2023-04-24T03:14:52;1.97;;;0.43;;
27013;SDS011;14556;52.222;4.510;2023-04-24T03:17:19;0.40;;;0.23;;
27013;SDS011;14556;52.222;4.510;2023-04-24T03:19:45;0.60;;;0.60;;
27013;SDS011;14556;52.222;4.510;2023-04-24T03:22:11;0.50;;;0.50;;
27013;SDS011;14556;52.222;4.510;2023-04-24T03:24:38;0.90;;;0.60;;
27013;SDS011;14556;52.222;4.510;2023-04-24T03:27:04;0.40;;;0.30;;
27013;SDS011;14556;52.222;4.510;2023-04-24T03:29:31;0.40;;;0.30;;
27013;SDS011;14556;52.222;4.510;2023-04-24T03:31:57;1.33;;;0.30;;
27013;SDS011;14556;52.222;4.510;2023-04-24T03:34:24;0.20;;;0.20;;
27013;SDS011;14556;52.222;4.510;2023-04-24T03:36:51;0.73;;;0.30;;
27013;SDS011;14556;52.222;4.510;2023-04-24T03:39:18;0.20;;;0.20;;
27013;SDS011;14556;52.222;4.510;2023-04-24T03:41:45;0.40;;;0.20;;
27013;SDS011;14556;52.222;4.510;2023-04-24T03:44:11;0.10;;;0.10;;
27013;SDS011;14556;52.222;4.510;2023-04-24T03:46:37;0.10;;;0.10;;
27013;SDS011;14556;52.222;4.510;2023-04-24T03:49:04;0.33;;;0.30;;
27013;SDS011;14556;52.222;4.510;2023-04-24T03:51:30;0.20;;;0.20;;
27013;SDS011;14556;52.222;4.510;2023-04-24T03:53:57;0.10;;;0.10;;
27013;SDS011;14556;52.222;4.510;2023-04-24T03:56:24;0.90;;;0.40;;
27013;SDS011;14556;52.222;4.510;2023-04-24T03:58:50;0.40;;;0.20;;
27013;SDS011;14556;52.222;4.510;2023-04-24T04:01:16;1.57;;;0.20;;
27013;SDS011;14556;52.222;4.510;2023-04-24T04:03:43;0.20;;;0.20;;
27013;SDS011;14556;52.222;4.510;2023-04-24T04:06:10;0.87;;;0.30;;
27013;SDS011;14556;52.222;4.510;2023-04-24T04:08:37;0.30;;;0.20;;
27013;SDS011;14556;52.222;4.510;2023-04-24T04:11:03;0.10;;;0.10;;
27013;SDS011;14556;52.222;4.510;2023-04-24T04:13:30;0.10;;;0.10;;
27013;SDS011;14556;52.222;4.510;2023-04-24T04:15:57;1.73;;;0.23;;
27013;SDS011;14556;52.222;4.510;2023-04-24T04:18:23;0.50;;;0.33;;
27013;SDS011;14556;52.222;4.510;2023-04-24T04:20:49;0.30;;;0.30;;
27013;SDS011;14556;52.222;4.510;2023-04-24T04:23:16;0.77;;;0.30;;
27013;SDS011;14556;52.222;4.510;2023-04-24T04:25:42;0.77;;;0.50;;
27013;SDS011;14556;52.222;4.510;2023-04-24T04:28:09;2.73;;;1.10;;
27013;SDS011;14556;52.222;4.510;2023-04-24T04:30:35;3.97;;;1.70;;
27013;SDS011;14556;52.222;4.510;2023-04-24T04:33:04;1.80;;;0.97;;
27013;SDS011;14556;52.222;4.510;2023-04-24T04:35:30;2.13;;;1.20;;
27013;SDS011;14556;52.222;4.510;2023-04-24T04:37:57;3.63;;;1.83;;
27013;SDS011;14556;52.222;4.510;2023-04-24T04:40:26;6.33;;;2.43;;
27013;SDS011;14556;52.222;4.510;2023-04-24T04:42:54;4.67;;;2.30;;
27013;SDS011;14556;52.222;4.510;2023-04-24T04:45:20;9.10;;;2.57;;
27013;SDS011;14556;52.222;4.510;2023-04-24T04:47:47;4.33;;;2.27;;
27013;SDS011;14556;52.222;4.510;2023-04-24T04:50:15;5.83;;;2.20;;
27013;SDS011;14556;52.222;4.510;2023-04-24T04:52:42;2.27;;;1.90;;
27013;SDS011;14556;52.222;4.510;2023-04-24T04:55:09;3.30;;;1.60;;
27013;SDS011;14556;52.222;4.510;2023-04-24T04:57:35;3.73;;;1.80;;
27013;SDS011;14556;52.222;4.510;2023-04-24T05:00:01;2.57;;;1.87;;
27013;SDS011;14556;52.222;4.510;2023-04-24T05:02:28;7.27;;;2.83;;
27013;SDS011;14556;52.222;4.510;2023-04-24T05:04:54;4.77;;;3.37;;
27013;SDS011;14556;52.222;4.510;2023-04-24T05:07:21;6.97;;;3.77;;
27013;SDS011;14556;52.222;4.510;2023-04-24T05:09:47;9.47;;;4.73;;
27013;SDS011;14556;52.222;4.510;2023-04-24T05:12:14;5.63;;;4.20;;
27013;SDS011;14556;52.222;4.510;2023-04-24T05:14:40;9.33;;;4.33;;
27013;SDS011;14556;52.222;4.510;2023-04-24T05:17:07;10.70;;;4.47;;
27013;SDS011;14556;52.222;4.510;2023-04-24T05:19:33;12.40;;;6.10;;
27013;SDS011;14556;52.222;4.510;2023-04-24T05:22:02;13.10;;;5.27;;
27013;SDS011;14556;52.222;4.510;2023-04-24T05:24:30;6.77;;;4.57;;
27013;SDS011;14556;52.222;4.510;2023-04-24T05:26:56;10.37;;;5.17;;
27013;SDS011;14556;52.222;4.510;2023-04-24T05:29:24;14.17;;;4.87;;
27013;SDS011;14556;52.222;4.510;2023-04-24T05:31:52;11.80;;;5.23;;
27013;SDS011;14556;52.222;4.510;2023-04-24T05:34:18;7.57;;;4.50;;
27013;SDS011;14556;52.222;4.510;2023-04-24T05:36:45;13.27;;;4.80;;
27013;SDS011;14556;52.222;4.510;2023-04-24T05:39:11;9.50;;;4.80;;
27013;SDS011;14556;52.222;4.510;2023-04-24T05:41:37;10.13;;;4.67;;
27013;SDS011;14556;52.222;4.510;2023-04-24T05:44:04;9.83;;;4.33;;
27013;SDS011;14556;52.222;4.510;2023-04-24T05:46:30;9.10;;;4.10;;
27013;SDS011;14556;52.222;4.510;2023-04-24T05:48:57;5.77;;;4.33;;
27013;SDS011;14556;52.222;4.510;2023-04-24T05:51:23;7.33;;;4.00;;
27013;SDS011;14556;52.222;4.510;2023-04-24T05:53:50;6.63;;;4.27;;
27013;SDS011;14556;52.222;4.510;2023-04-24T05:56:16;8.70;;;3.80;;
27013;SDS011;14556;52.222;4.510;2023-04-24T05:58:43;10.37;;;4.30;;
27013;SDS011;14556;52.222;4.510;2023-04-24T06:01:09;6.10;;;3.63;;
27013;SDS011;14556;52.222;4.510;2023-04-24T06:03:37;10.27;;;3.77;;
27013;SDS011;14556;52.222;4.510;2023-04-24T06:06:05;6.43;;;2.73;;
27013;SDS011;14556;52.222;4.510;2023-04-24T06:08:32;8.17;;;3.13;;
27013;SDS011;14556;52.222;4.510;2023-04-24T06:10:59;7.30;;;2.97;;
27013;SDS011;14556;52.222;4.510;2023-04-24T06:13:27;6.97;;;2.70;;
27013;SDS011;14556;52.222;4.510;2023-04-24T06:15:53;9.37;;;2.80;;
27013;SDS011;14556;52.222;4.510;2023-04-24T06:18:20;5.63;;;2.80;;
27013;SDS011;14556;52.222;4.510;2023-04-24T06:20:46;3.80;;;2.43;;
27013;SDS011;14556;52.222;4.510;2023-04-24T06:23:12;7.33;;;2.53;;
27013;SDS011;14556;52.222;4.510;2023-04-24T06:25:39;6.47;;;2.53;;
27013;SDS011;14556;52.222;4.510;2023-04-24T06:28:05;3.90;;;2.20;;
27013;SDS011;14556;52.222;4.510;2023-04-24T06:30:32;5.40;;;2.50;;
27013;SDS011;14556;52.222;4.510;2023-04-24T06:32:58;7.17;;;3.30;;
27013;SDS011;14556;52.222;4.510;2023-04-24T06:35:34;7.73;;;2.80;;
27013;SDS011;14556;52.222;4.510;2023-04-24T06:38:01;10.30;;;2.57;;
27013;SDS011;14556;52.222;4.510;2023-04-24T06:40:27;7.80;;;2.60;;
27013;SDS011;14556;52.222;4.510;2023-04-24T08:21:56;1.20;;;0.90;;
27013;SDS011;14556;52.222;4.510;2023-04-24T08:24:23;4.93;;;1.20;;
27013;SDS011;14556;52.222;4.510;2023-04-24T08:26:49;6.00;;;1.37;;
27013;SDS011;14556;52.222;4.510;2023-04-24T08:29:17;5.27;;;1.33;;
27013;SDS011;14556;52.222;4.510;2023-04-24T08:31:44;4.20;;;1.20;;
27013;SDS011;14556;52.222;4.510;2023-04-24T08:34:10;4.30;;;1.33;;
27013;SDS011;14556;52.222;4.510;2023-04-24T08:36:38;3.00;;;0.90;;
27013;SDS011;14556;52.222;4.510;2023-04-24T08:39:12;5.57;;;1.40;;
27013;SDS011;14556;52.222;4.510;2023-04-24T08:41:43;1.67;;;0.97;;
27013;SDS011;14556;52.222;4.510;2023-04-24T08:44:11;3.80;;;1.13;;
27013;SDS011;14556;52.222;4.510;2023-04-24T08:46:43;2.07;;;1.03;;
27013;SDS011;14556;52.222;4.510;2023-04-24T08:49:15;0.90;;;0.80;;
27013;SDS011;14556;52.222;4.510;2023-04-24T08:51:45;4.80;;;1.00;;
27013;SDS011;14556;52.222;4.510;2023-04-24T08:54:14;5.67;;;1.50;;
27013;SDS011;14556;52.222;4.510;2023-04-24T08:56:40;4.40;;;1.03;;
27013;SDS011;14556;52.222;4.510;2023-04-24T08:59:14;3.03;;;1.47;;
27013;SDS011;14556;52.222;4.510;2023-04-24T09:01:45;2.30;;;0.70;;
27013;SDS011;14556;52.222;4.510;2023-04-24T09:04:14;2.87;;;1.57;;
27013;SDS011;14556;52.222;4.510;2023-04-24T09:06:43;2.37;;;1.00;;
27013;SDS011;14556;52.222;4.510;2023-04-24T09:09:11;3.33;;;1.30;;
27013;SDS011;14556;52.222;4.510;2023-04-24T09:11:39;2.93;;;0.70;;
27013;SDS011;14556;52.222;4.510;2023-04-24T09:14:06;7.00;;;1.10;;
27013;SDS011;14556;52.222;4.510;2023-04-24T09:16:32;1.47;;;0.67;;
27013;SDS011;14556;52.222;4.510;2023-04-24T09:19:01;4.27;;;0.93;;
27013;SDS011;14556;52.222;4.510;2023-04-24T09:21:32;1.00;;;0.40;;
27013;SDS011;14556;52.222;4.510;2023-04-24T09:24:03;2.33;;;0.90;;
27013;SDS011;14556;52.222;4.510;2023-04-24T09:26:34;2.40;;;0.77;;
27013;SDS011;14556;52.222;4.510;2023-04-24T09:29:03;3.50;;;0.80;;
27013;SDS011;14556;52.222;4.510;2023-04-24T09:31:30;2.60;;;0.60;;
27013;SDS011;14556;52.222;4.510;2023-04-24T09:36:31;0.70;;;0.47;;
27013;SDS011;14556;52.222;4.510;2023-04-24T09:39:11;1.90;;;0.47;;
27013;SDS011;14556;52.222;4.510;2023-04-24T09:41:49;2.20;;;0.53;;
27013;SDS011;14556;52.222;4.510;2023-04-24T09:44:23;0.73;;;0.50;;
27013;SDS011;14556;52.222;4.510;2023-04-24T09:46:52;2.03;;;0.60;;
27013;SDS011;14556;52.222;4.510;2023-04-24T09:49:27;5.13;;;1.03;;
27013;SDS011;14556;52.222;4.510;2023-04-24T09:52:04;5.70;;;1.00;;
27013;SDS011;14556;52.222;4.510;2023-04-24T09:54:33;2.00;;;0.83;;
27013;SDS011;14556;52.222;4.510;2023-04-24T09:56:59;1.50;;;0.70;;
27013;SDS011;14556;52.222;4.510;2023-04-24T09:59:29;3.20;;;0.50;;
27013;SDS011;14556;52.222;4.510;2023-04-24T10:01:56;2.77;;;0.50;;
27013;SDS011;14556;52.222;4.510;2023-04-24T10:04:25;1.30;;;0.70;;
27013;SDS011;14556;52.222;4.510;2023-04-24T10:06:54;0.90;;;0.43;;
27013;SDS011;14556;52.222;4.510;2023-04-24T10:09:22;7.10;;;0.70;;
27013;SDS011;14556;52.222;4.510;2023-04-24T10:11:51;2.40;;;0.50;;
27013;SDS011;14556;52.222;4.510;2023-04-24T10:14:23;2.60;;;0.97;;
27013;SDS011;14556;52.222;4.510;2023-04-24T10:16:53;3.83;;;0.63;;
27013;SDS011;14556;52.222;4.510;2023-04-24T10:19:20;2.97;;;0.70;;
27013;SDS011;14556;52.222;4.510;2023-04-24T10:21:48;1.40;;;0.63;;
27013;SDS011;14556;52.222;4.510;2023-04-24T10:24:16;3.30;;;0.80;;
27013;SDS011;14556;52.222;4.510;2023-04-24T10:26:44;0.93;;;0.70;;
27013;SDS011;14556;52.222;4.510;2023-04-24T10:29:12;4.50;;;0.80;;
27013;SDS011;14556;52.222;4.510;2023-04-24T10:31:41;5.67;;;0.80;;
27013;SDS011;14556;52.222;4.510;2023-04-24T10:34:11;1.13;;;0.50;;
27013;SDS011;14556;52.222;4.510;2023-04-24T10:36:41;2.07;;;0.40;;
27013;SDS011;14556;52.222;4.510;2023-04-24T10:39:12;2.17;;;0.43;;
27013;SDS011;14556;52.222;4.510;2023-04-24T10:41:41;5.63;;;0.63;;
27013;SDS011;14556;52.222;4.510;2023-04-24T10:44:10;5.20;;;0.40;;
27013;SDS011;14556;52.222;4.510;2023-04-24T10:46:39;1.30;;;0.40;;
27013;SDS011;14556;52.222;4.510;2023-04-24T10:49:10;2.43;;;0.93;;
27013;SDS011;14556;52.222;4.510;2023-04-24T10:51:49;1.80;;;0.43;;
27013;SDS011;14556;52.222;4.510;2023-04-24T10:59:49;2.50;;;0.50;;
27013;SDS011;14556;52.222;4.510;2023-04-24T11:02:36;2.37;;;0.53;;
27013;SDS011;14556;52.222;4.510;2023-04-24T11:05:04;2.83;;;0.53;;
27013;SDS011;14556;52.222;4.510;2023-04-24T11:08:09;3.43;;;0.60;;
27013;SDS011;14556;52.222;4.510;2023-04-24T11:10:43;1.23;;;0.50;;
27013;SDS011;14556;52.222;4.510;2023-04-24T11:13:14;1.93;;;1.00;;
27013;SDS011;14556;52.222;4.510;2023-04-24T11:16:11;3.10;;;0.80;;
27013;SDS011;14556;52.222;4.510;2023-04-24T11:26:55;1.50;;;0.47;;
27013;SDS011;14556;52.222;4.510;2023-04-24T11:29:23;5.13;;;0.70;;
27013;SDS011;14556;52.222;4.510;2023-04-24T11:33:05;3.47;;;0.90;;
27013;SDS011;14556;52.222;4.510;2023-04-24T11:37:54;3.43;;;0.87;;
27013;SDS011;14556;52.222;4.510;2023-04-24T11:40:24;3.33;;;1.00;;
27013;SDS011;14556;52.222;4.510;2023-04-24T11:42:52;5.87;;;0.97;;
27013;SDS011;14556;52.222;4.510;2023-04-24T11:45:25;2.80;;;1.17;;
27013;SDS011;14556;52.222;4.510;2023-04-24T11:47:53;4.93;;;1.00;;
27013;SDS011;14556;52.222;4.510;2023-04-24T11:50:22;1.80;;;0.90;;
27013;SDS011;14556;52.222;4.510;2023-04-24T11:52:55;6.20;;;0.90;;
27013;SDS011;14556;52.222;4.510;2023-04-24T11:55:23;6.00;;;1.40;;
27013;SDS011;14556;52.222;4.510;2023-04-24T11:57:50;5.97;;;1.10;;
27013;SDS011;14556;52.222;4.510;2023-04-24T12:00:20;2.60;;;0.93;;
27013;SDS011;14556;52.222;4.510;2023-04-24T12:02:48;4.87;;;1.23;;
27013;SDS011;14556;52.222;4.510;2023-04-24T12:05:25;3.60;;;1.23;;
27013;SDS011;14556;52.222;4.510;2023-04-24T12:07:53;7.53;;;1.17;;
27013;SDS011;14556;52.222;4.510;2023-04-24T12:10:20;4.97;;;1.67;;
27013;SDS011;14556;52.222;4.510;2023-04-24T12:12:49;6.43;;;1.00;;
27013;SDS011;14556;52.222;4.510;2023-04-24T12:15:18;6.07;;;1.77;;
27013;SDS011;14556;52.222;4.510;2023-04-24T12:17:46;3.60;;;1.13;;
27013;SDS011;14556;52.222;4.510;2023-04-24T12:20:14;6.20;;;1.73;;
27013;SDS011;14556;52.222;4.510;2023-04-24T12:22:50;7.67;;;1.70;;
27013;SDS011;14556;52.222;4.510;2023-04-24T12:25:26;4.47;;;1.50;;
27013;SDS011;14556;52.222;4.510;2023-04-24T12:27:55;6.10;;;1.33;;
27013;SDS011;14556;52.222;4.510;2023-04-24T12:30:41;7.37;;;1.53;;
27013;SDS011;14556;52.222;4.510;2023-04-24T12:33:20;6.83;;;1.90;;
27013;SDS011;14556;52.222;4.510;2023-04-24T12:35:48;4.60;;;1.40;;
27013;SDS011;14556;52.222;4.510;2023-04-24T12:38:21;5.23;;;1.43;;
27013;SDS011;14556;52.222;4.510;2023-04-24T12:41:04;3.20;;;1.43;;
27013;SDS011;14556;52.222;4.510;2023-04-24T12:43:36;6.83;;;1.80;;
27013;SDS011;14556;52.222;4.510;2023-04-24T12:46:06;7.43;;;1.60;;
27013;SDS011;14556;52.222;4.510;2023-04-24T12:48:32;2.60;;;1.90;;
27013;SDS011;14556;52.222;4.510;2023-04-24T12:50:59;2.73;;;1.53;;
27013;SDS011;14556;52.222;4.510;2023-04-24T12:53:29;5.80;;;1.80;;
27013;SDS011;14556;52.222;4.510;2023-04-24T12:55:57;9.63;;;1.80;;
27013;SDS011;14556;52.222;4.510;2023-04-24T12:58:23;6.57;;;1.27;;
27013;SDS011;14556;52.222;4.510;2023-04-24T13:00:51;5.70;;;1.63;;
27013;SDS011;14556;52.222;4.510;2023-04-24T13:03:18;3.80;;;1.33;;
27013;SDS011;14556;52.222;4.510;2023-04-24T13:05:46;9.27;;;2.07;;
27013;SDS011;14556;52.222;4.510;2023-04-24T13:08:13;5.90;;;1.60;;
27013;SDS011;14556;52.222;4.510;2023-04-24T13:10:39;3.60;;;1.40;;
27013;SDS011;14556;52.222;4.510;2023-04-24T13:13:08;6.73;;;1.83;;
27013;SDS011;14556;52.222;4.510;2023-04-24T13:15:35;4.80;;;1.53;;
27013;SDS011;14556;52.222;4.510;2023-04-24T13:18:01;10.07;;;1.63;;
27013;SDS011;14556;52.222;4.510;2023-04-24T13:20:29;8.63;;;1.97;;
27013;SDS011;14556;52.222;4.510;2023-04-24T13:22:56;4.93;;;1.80;;
27013;SDS011;14556;52.222;4.510;2023-04-24T13:25:22;5.33;;;1.70;;
27013;SDS011;14556;52.222;4.510;2023-04-24T13:27:49;2.60;;;1.10;;
27013;SDS011;14556;52.222;4.510;2023-04-24T13:30:16;1.73;;;1.00;;
27013;SDS011;14556;52.222;4.510;2023-04-24T13:32:43;3.37;;;1.50;;
27013;SDS011;14556;52.222;4.510;2023-04-24T13:35:10;6.37;;;1.63;;
27013;SDS011;14556;52.222;4.510;2023-04-24T13:37:38;6.30;;;1.90;;
27013;SDS011;14556;52.222;4.510;2023-04-24T13:40:05;9.37;;;2.83;;
27013;SDS011;14556;52.222;4.510;2023-04-24T13:42:33;3.93;;;1.77;;
27013;SDS011;14556;52.222;4.510;2023-04-24T13:44:59;4.87;;;1.63;;
27013;SDS011;14556;52.222;4.510;2023-04-24T13:47:39;6.03;;;1.77;;
27013;SDS011;14556;52.222;4.510;2023-04-24T13:50:07;7.63;;;2.17;;
27013;SDS011;14556;52.222;4.510;2023-04-24T13:52:36;8.33;;;2.40;;
27013;SDS011;14556;52.222;4.510;2023-04-24T13:55:03;4.33;;;1.70;;
27013;SDS011;14556;52.222;4.510;2023-04-24T13:57:31;4.43;;;1.63;;
27013;SDS011;14556;52.222;4.510;2023-04-24T13:59:58;7.23;;;1.60;;
27013;SDS011;14556;52.222;4.510;2023-04-24T14:02:28;7.47;;;2.10;;
27013;SDS011;14556;52.222;4.510;2023-04-24T14:04:55;5.97;;;1.63;;
27013;SDS011;14556;52.222;4.510;2023-04-24T14:07:25;6.03;;;2.30;;
27013;SDS011;14556;52.222;4.510;2023-04-24T14:09:52;6.63;;;2.30;;
27013;SDS011;14556;52.222;4.510;2023-04-24T14:12:18;7.00;;;1.50;;
27013;SDS011;14556;52.222;4.510;2023-04-24T14:14:46;6.93;;;2.63;;
27013;SDS011;14556;52.222;4.510;2023-04-24T14:17:14;5.37;;;1.77;;
27013;SDS011;14556;52.222;4.510;2023-04-24T14:19:40;3.73;;;1.40;;
27013;SDS011;14556;52.222;4.510;2023-04-24T14:22:07;4.10;;;1.47;;
27013;SDS011;14556;52.222;4.510;2023-04-24T14:24:37;8.57;;;2.20;;
27013;SDS011;14556;52.222;4.510;2023-04-24T14:27:03;7.63;;;2.23;;
27013;SDS011;14556;52.222;4.510;2023-04-24T14:29:30;4.60;;;1.90;;
27013;SDS011;14556;52.222;4.510;2023-04-24T14:31:58;5.30;;;1.93;;
27013;SDS011;14556;52.222;4.510;2023-04-24T14:34:24;2.97;;;1.50;;
27013;SDS011;14556;52.222;4.510;2023-04-24T14:36:52;4.80;;;1.60;;
27013;SDS011;14556;52.222;4.510;2023-04-24T14:39:18;7.00;;;1.67;;
27013;SDS011;14556;52.222;4.510;2023-04-24T14:42:08;4.57;;;1.50;;
27013;SDS011;14556;52.222;4.510;2023-04-24T14:44:37;3.70;;;1.57;;
27013;SDS011;14556;52.222;4.510;2023-04-24T14:47:03;8.30;;;2.10;;
27013;SDS011;14556;52.222;4.510;2023-04-24T14:49:30;5.77;;;1.87;;
27013;SDS011;14556;52.222;4.510;2023-04-24T14:51:56;3.97;;;1.47;;
27013;SDS011;14556;52.222;4.510;2023-04-24T14:54:23;5.50;;;2.10;;
27013;SDS011;14556;52.222;4.510;2023-04-24T14:56:49;2.07;;;1.47;;
27013;SDS011;14556;52.222;4.510;2023-04-24T14:59:16;5.50;;;2.00;;
27013;SDS011;14556;52.222;4.510;2023-04-24T15:01:43;6.33;;;1.60;;
27013;SDS011;14556;52.222;4.510;2023-04-24T15:04:09;2.63;;;1.67;;
27013;SDS011;14556;52.222;4.510;2023-04-24T15:06:36;4.53;;;1.70;;
27013;SDS011;14556;52.222;4.510;2023-04-24T15:09:02;3.67;;;1.80;;
27013;SDS011;14556;52.222;4.510;2023-04-24T15:11:29;6.07;;;1.73;;
27013;SDS011;14556;52.222;4.510;2023-04-24T15:13:56;6.00;;;1.67;;
27013;SDS011;14556;52.222;4.510;2023-04-24T15:16:23;6.97;;;1.70;;
27013;SDS011;14556;52.222;4.510;2023-04-24T15:18:50;12.13;;;3.73;;
27013;SDS011;14556;52.222;4.510;2023-04-24T15:21:19;6.10;;;1.93;;
27013;SDS011;14556;52.222;4.510;2023-04-24T15:23:45;4.37;;;1.90;;
27013;SDS011;14556;52.222;4.510;2023-04-24T15:26:12;7.60;;;2.17;;
27013;SDS011;14556;52.222;4.510;2023-04-24T15:28:39;6.10;;;1.80;;
27013;SDS011;14556;52.222;4.510;2023-04-24T15:31:05;8.77;;;2.40;;
27013;SDS011;14556;52.222;4.510;2023-04-24T15:33:32;7.03;;;2.33;;
27013;SDS011;14556;52.222;4.510;2023-04-24T15:35:58;6.20;;;1.97;;
27013;SDS011;14556;52.222;4.510;2023-04-24T15:38:25;4.37;;;1.63;;
27013;SDS011;14556;52.222;4.510;2023-04-24T15:40:52;4.47;;;1.63;;
27013;SDS011;14556;52.222;4.510;2023-04-24T15:43:18;5.47;;;2.13;;
27013;SDS011;14556;52.222;4.510;2023-04-24T15:45:45;5.03;;;1.83;;
27013;SDS011;14556;52.222;4.510;2023-04-24T15:48:11;5.97;;;2.17;;
27013;SDS011;14556;52.222;4.510;2023-04-24T15:50:38;7.07;;;2.07;;
27013;SDS011;14556;52.222;4.510;2023-04-24T15:53:05;4.63;;;1.33;;
27013;SDS011;14556;52.222;4.510;2023-04-24T15:55:31;6.13;;;1.90;;
27013;SDS011;14556;52.222;4.510;2023-04-24T15:57:59;4.73;;;1.73;;
27013;SDS011;14556;52.222;4.510;2023-04-24T16:00:26;5.03;;;1.27;;
27013;SDS011;14556;52.222;4.510;2023-04-24T16:03:00;6.03;;;2.00;;
27013;SDS011;14556;52.222;4.510;2023-04-24T16:05:27;8.47;;;2.67;;
27013;SDS011;14556;52.222;4.510;2023-04-24T16:07:54;10.43;;;2.33;;
27013;SDS011;14556;52.222;4.510;2023-04-24T16:10:22;7.07;;;2.20;;
27013;SDS011;14556;52.222;4.510;2023-04-24T16:12:49;4.83;;;1.97;;
27013;SDS011;14556;52.222;4.510;2023-04-24T16:15:18;6.50;;;1.93;;
27013;SDS011;14556;52.222;4.510;2023-04-24T16:17:45;5.57;;;2.37;;
27013;SDS011;14556;52.222;4.510;2023-04-24T16:20:12;5.53;;;2.07;;
27013;SDS011;14556;52.222;4.510;2023-04-24T16:22:39;3.97;;;1.80;;
27013;SDS011;14556;52.222;4.510;2023-04-24T16:25:06;5.20;;;1.87;;
27013;SDS011;14556;52.222;4.510;2023-04-24T16:27:33;7.47;;;2.07;;
27013;SDS011;14556;52.222;4.510;2023-04-24T16:30:00;5.03;;;1.83;;
27013;SDS011;14556;52.222;4.510;2023-04-24T16:32:28;4.60;;;1.80;;
27013;SDS011;14556;52.222;4.510;2023-04-24T16:34:54;6.43;;;1.90;;
27013;SDS011;14556;52.222;4.510;2023-04-24T16:37:21;6.27;;;2.00;;
27013;SDS011;14556;52.222;4.510;2023-04-24T16:39:47;5.43;;;2.20;;
27013;SDS011;14556;52.222;4.510;2023-04-24T16:42:14;7.87;;;2.03;;
27013;SDS011;14556;52.222;4.510;2023-04-24T16:44:41;4.80;;;2.03;;
27013;SDS011;14556;52.222;4.510;2023-04-24T16:47:09;8.50;;;1.50;;
27013;SDS011;14556;52.222;4.510;2023-04-24T16:49:36;9.10;;;2.00;;
27013;SDS011;14556;52.222;4.510;2023-04-24T16:52:03;6.43;;;1.70;;